Antiville, Indiana
Current Conditions -  °F | °C
As of 7:53 PM on Tuesday 21 Oct 2014 (Local Time) from KMIE Reporting Station
Overcast Overcast  
Wind Chill: 51°   Ceiling: 4600
Heat Index: 51°   Visibility: 10mi
Dew Point: 41°   Wind: 9mph
Humidity: 68%   Direction: 30°NNE
Pressure: 30.15"   Gusts: NA
Location:  40.4312°N, 85.0058°W
Report Text: KMIE 212353Z 03008KT 10SM SCT032 OVC046 11/05 A3015 RMK AO2 SLP208 T01060050 10139 20106 51017
Loading
Personal Weather Stations






























Interactive Weather Map
Tropical Storm Tracking
New forecast layout! Learn more

10-Day Weather Forecast

Advertisements
Track Severe Weather on mobile